createdAt,value
2023-03-17T00:09:12.240Z,6.20
2023-03-17T00:14:17.032Z,4.68
2023-03-17T00:19:32.346Z,4.90
2023-03-17T00:24:35.861Z,8.40
2023-03-17T00:29:41.348Z,7.75
2023-03-17T00:34:45.032Z,6.75
2023-03-17T00:39:49.737Z,8.15
2023-03-17T00:44:54.571Z,7.10
2023-03-17T00:49:58.685Z,8.38
2023-03-17T00:55:02.344Z,6.77
2023-03-17T01:05:22.449Z,7.53
2023-03-17T01:10:28.343Z,5.90
2023-03-17T01:15:35.563Z,4.38
2023-03-17T01:20:40.041Z,4.75
2023-03-17T01:25:44.826Z,4.18
2023-03-17T01:30:50.142Z,4.65
2023-03-17T01:35:54.209Z,3.22
2023-03-17T01:40:57.589Z,3.10
2023-03-17T01:46:22.187Z,5.43
2023-03-17T01:51:32.201Z,3.77
2023-03-17T01:56:36.458Z,4.97
2023-03-17T02:01:47.571Z,4.18
2023-03-17T02:06:58.438Z,7.25
2023-03-17T02:12:04.194Z,2.97
2023-03-17T02:17:10.036Z,3.83
2023-03-17T02:22:15.497Z,6.38
2023-03-17T02:27:21.405Z,5.22
2023-03-17T02:32:25.466Z,2.97
2023-03-17T02:37:30.426Z,4.83
2023-03-17T02:42:34.675Z,5.53
2023-03-17T02:47:38.126Z,3.40
2023-03-17T02:52:42.963Z,4.15
2023-03-17T03:02:49.843Z,3.83
2023-03-17T03:07:54.618Z,3.45
2023-03-17T03:12:57.927Z,2.13
2023-03-17T03:18:01.404Z,5.15
2023-03-17T03:23:06.378Z,5.18
2023-03-17T03:33:14.569Z,3.50
2023-03-17T03:38:19.822Z,3.90
2023-03-17T03:43:24.197Z,3.45
2023-03-17T03:48:27.719Z,2.90
2023-03-17T03:53:32.816Z,5.90
2023-03-17T03:58:36.319Z,4.28
2023-03-17T04:03:40.526Z,3.78
2023-03-17T04:08:45.500Z,5.68
2023-03-17T04:18:52.261Z,2.65
2023-03-17T04:23:57.371Z,3.95
2023-03-17T04:29:00.826Z,3.70
2023-03-17T04:34:04.266Z,4.20
2023-03-17T04:39:09.142Z,3.55
2023-03-17T04:49:15.545Z,2.83
2023-03-17T04:54:20.496Z,3.38
2023-03-17T05:04:31.644Z,5.07
2023-03-17T05:09:37.502Z,3.22
2023-03-17T05:14:41.146Z,4.53
2023-03-17T05:19:44.698Z,4.55
2023-03-17T05:24:49.606Z,2.95
2023-03-17T05:34:56.287Z,2.63
2023-03-17T05:40:01.248Z,3.45
2023-03-17T05:45:05.355Z,3.65
2023-03-17T05:50:09.973Z,3.00
2023-03-17T05:55:14.979Z,3.65
2023-03-17T06:00:19.410Z,2.35
2023-03-17T06:05:23.015Z,1.83
2023-03-17T06:10:28.433Z,4.22
2023-03-17T06:15:32.793Z,2.30
2023-03-17T06:20:36.830Z,3.53
2023-03-17T06:25:41.693Z,3.38
2023-03-17T06:35:48.559Z,1.90
2023-03-17T06:40:53.609Z,1.70
2023-03-17T06:45:57.200Z,2.97
2023-03-17T06:51:00.548Z,4.07
2023-03-17T06:56:05.916Z,1.85
2023-03-17T07:01:09.480Z,2.35
2023-03-17T07:06:13.421Z,3.45
2023-03-17T07:11:18.621Z,4.87
2023-03-17T07:16:22.555Z,2.10
2023-03-17T07:21:26.066Z,2.80
2023-03-17T07:26:32.243Z,3.22
2023-03-17T07:31:38.835Z,2.58
2023-03-17T07:36:42.807Z,2.50
2023-03-17T07:41:53.132Z,2.10
2023-03-17T07:46:56.715Z,3.30
2023-03-17T07:52:00.097Z,4.18
2023-03-17T07:57:05.451Z,3.63
2023-03-17T08:02:09.154Z,2.80
2023-03-17T08:07:13.280Z,3.58
2023-03-17T08:12:18.291Z,2.70
2023-03-17T08:17:21.789Z,3.67
2023-03-17T08:22:25.475Z,3.40
2023-03-17T08:27:33.214Z,2.00
2023-03-17T08:32:37.331Z,2.40
2023-03-17T08:37:40.902Z,5.00
2023-03-17T08:42:46.024Z,1.98
2023-03-17T08:47:49.617Z,2.45
2023-03-17T08:52:54.516Z,2.70
2023-03-17T08:57:59.383Z,2.42
2023-03-17T09:03:03.748Z,2.58
2023-03-17T09:08:07.847Z,3.53
2023-03-17T09:13:12.930Z,3.53
2023-03-17T09:18:16.389Z,1.80
2023-03-17T09:23:20.238Z,3.40
2023-03-17T09:28:25.042Z,2.47
2023-03-17T09:38:31.992Z,2.72
2023-03-17T09:43:46.116Z,2.33
2023-03-17T09:48:59.494Z,1.93
2023-03-17T09:54:05.350Z,2.38
2023-03-17T09:59:31.290Z,1.75
2023-03-17T10:04:34.654Z,3.28
2023-03-17T10:09:42.902Z,3.85
2023-03-17T10:14:55.993Z,2.15
2023-03-17T10:20:02.533Z,2.03
2023-03-17T10:25:14.933Z,2.40
2023-03-17T10:30:22.270Z,2.20
2023-03-17T10:35:26.403Z,2.33
2023-03-17T10:40:32.268Z,1.90
2023-03-17T10:45:44.025Z,3.67
2023-03-17T10:50:49.573Z,2.55
2023-03-17T10:55:54.616Z,1.90
2023-03-17T11:06:06.375Z,2.85
2023-03-17T11:11:22.929Z,3.67
2023-03-17T11:16:28.147Z,2.35
2023-03-17T11:21:34.884Z,2.30
2023-03-17T11:27:00.782Z,2.83
2023-03-17T11:32:23.816Z,3.47
2023-03-17T11:37:44.965Z,3.38
2023-03-17T11:43:04.381Z,2.13
2023-03-17T11:48:22.521Z,4.00
2023-03-17T11:53:46.513Z,2.85
2023-03-17T11:58:56.702Z,2.10
2023-03-17T12:04:10.650Z,3.42
2023-03-17T12:09:26.111Z,3.45
2023-03-17T12:14:33.198Z,2.20
2023-03-17T12:19:43.979Z,2.75
2023-03-17T12:24:54.771Z,3.92
2023-03-17T12:30:02.121Z,2.90
2023-03-17T12:35:26.895Z,2.72
2023-03-17T12:40:36.705Z,2.90
2023-03-17T12:45:54.206Z,3.00
2023-03-17T12:51:51.080Z,2.20
2023-03-17T12:57:03.972Z,3.80
2023-03-17T13:02:17.900Z,2.90
2023-03-17T13:07:27.190Z,4.35
2023-03-17T13:12:57.817Z,2.85
2023-03-17T13:18:29.240Z,4.07
2023-03-17T13:23:39.078Z,4.43
2023-03-17T13:28:48.863Z,3.20
2023-03-17T13:33:55.563Z,2.90
2023-03-17T13:39:30.627Z,2.33
2023-03-17T13:44:48.023Z,3.35
2023-03-17T13:49:53.040Z,4.95
2023-03-17T13:55:07.446Z,4.03
2023-03-17T14:00:24.625Z,3.50
2023-03-17T14:05:31.292Z,2.25
2023-03-17T14:10:37.439Z,7.15
2023-03-17T14:15:49.252Z,2.33
2023-03-17T14:20:57.364Z,3.20
2023-03-17T14:26:04.229Z,2.00
2023-03-17T14:31:09.084Z,4.00
2023-03-17T14:46:28.030Z,2.30
2023-03-17T14:51:36.104Z,1.92
2023-03-17T14:56:44.326Z,3.92
2023-03-17T15:01:49.094Z,3.10
2023-03-17T15:06:54.844Z,2.50
2023-03-17T15:12:06.924Z,2.40
2023-03-17T15:17:19.139Z,2.47
2023-03-17T15:22:26.139Z,4.25
2023-03-17T15:27:32.761Z,2.78
2023-03-17T15:32:36.729Z,2.33
2023-03-17T15:37:40.162Z,2.97
2023-03-17T15:42:45.566Z,2.85
2023-03-17T15:47:49.461Z,4.25
2023-03-17T15:52:56.009Z,2.95
2023-03-17T15:58:01.640Z,4.53
2023-03-17T16:03:15.273Z,4.70
2023-03-17T16:08:19.206Z,4.18
2023-03-17T16:13:24.254Z,2.60
2023-03-17T16:23:37.412Z,2.90
2023-03-17T16:28:42.583Z,2.55
2023-03-17T16:38:49.784Z,4.05
2023-03-17T16:43:59.644Z,3.37
2023-03-17T16:49:04.331Z,4.97
2023-03-17T16:54:07.973Z,4.10
2023-03-17T16:59:19.977Z,3.50
2023-03-17T17:04:24.450Z,4.65
2023-03-17T17:09:27.915Z,3.70
2023-03-17T17:14:32.840Z,4.85
2023-03-17T17:24:39.667Z,10.25
2023-03-17T17:29:44.576Z,16.23
2023-03-17T17:39:51.895Z,6.13
2023-03-17T17:44:56.766Z,9.30
2023-03-17T17:50:00.451Z,11.05
2023-03-17T17:55:03.952Z,7.40
2023-03-17T18:00:11.281Z,5.47
2023-03-17T18:05:14.857Z,4.28
2023-03-17T18:10:20.070Z,8.70
2023-03-17T18:15:26.596Z,3.58
2023-03-17T18:20:30.641Z,6.75
2023-03-17T18:25:34.393Z,5.90
2023-03-17T18:30:39.335Z,7.10
2023-03-17T18:40:46.688Z,6.35
2023-03-17T18:45:51.574Z,4.90
2023-03-17T18:55:59.565Z,6.90
2023-03-17T19:11:15.595Z,5.72
2023-03-17T19:16:20.557Z,5.80
2023-03-17T19:21:24.772Z,6.32
2023-03-17T19:26:28.715Z,8.88
2023-03-17T19:31:33.751Z,8.53
2023-03-17T19:36:38.219Z,7.28
2023-03-17T19:41:41.896Z,6.43
2023-03-17T19:46:46.841Z,9.68
2023-03-17T19:51:50.657Z,11.57
2023-03-17T19:56:54.178Z,10.40
2023-03-17T20:01:59.091Z,9.05
2023-03-17T20:12:06.785Z,11.15
2023-03-17T20:17:12.298Z,6.55
2023-03-17T20:22:16.109Z,7.18
2023-03-17T20:27:19.869Z,8.95
2023-03-17T20:32:24.816Z,8.80
2023-03-17T20:37:28.360Z,9.90
2023-03-17T20:42:31.881Z,13.18
2023-03-17T20:47:36.758Z,8.48
2023-03-17T20:57:47.773Z,7.50
2023-03-17T21:02:53.425Z,12.90
2023-03-17T21:07:57.869Z,10.77
2023-03-17T21:13:01.498Z,7.85
2023-03-17T21:18:07.026Z,14.43
2023-03-17T21:23:11.144Z,11.18
2023-03-17T21:28:15.656Z,11.40
2023-03-17T21:33:21.673Z,10.55
2023-03-17T21:38:25.102Z,9.77
2023-03-17T21:43:29.087Z,12.35
2023-03-17T21:48:33.850Z,9.63
2023-03-17T21:58:40.736Z,11.57
2023-03-17T22:03:46.156Z,9.45
2023-03-17T22:08:50.761Z,8.45
2023-03-17T22:13:54.307Z,10.38
2023-03-17T22:18:59.084Z,11.13
2023-03-17T22:29:06.835Z,9.57
2023-03-17T22:34:11.814Z,12.52
2023-03-17T22:39:15.306Z,9.30
2023-03-17T22:44:18.641Z,12.38
2023-03-17T22:49:23.828Z,7.50
2023-03-17T22:54:27.422Z,9.23
2023-03-17T22:59:30.961Z,9.90
2023-03-17T23:04:36.112Z,9.68
2023-03-17T23:09:41.461Z,7.22
2023-03-17T23:14:45.253Z,5.80
2023-03-17T23:19:50.164Z,7.63
2023-03-17T23:24:54.154Z,10.13
2023-03-17T23:29:59.332Z,5.63
2023-03-17T23:35:04.188Z,7.25
2023-03-17T23:40:09.401Z,7.57
2023-03-17T23:45:15.620Z,5.82
2023-03-17T23:50:21.928Z,5.22
2023-03-17T23:55:25.251Z,6.20
